Time;durP1;ratioP1;P1;durP2;ratioP2;P2;SDS_P1;SDS_P2;PMS_P1;PMS_P2;Temp;Humidity;BMP_temperature;BMP_pressure;BME280_temperature;BME280_humidity;BME280_pressure;Samples;Min_cycle;Max_cycle;Signal;HPM_P1;HPM_P2
2021/08/14 07:04:18;;;;;;;;;12.00;11.40;;;;;29.78;44.06;99200.78;6393032;22;97538;-58
2021/08/14 07:07:22;;;;;;;;;11.00;11.00;;;;;29.96;43.59;99210.59;6067939;28;97068;-59
2021/08/14 07:10:25;;;;;;;;;11.60;11.60;;;;;30.15;42.94;99205.38;6068518;28;98939;-60
2021/08/14 07:13:29;;;;;;;;;10.75;10.75;;;;;30.46;42.92;99216.00;6090615;28;97358;-59
2021/08/14 07:16:32;;;;;;;;;15.00;14.00;;;;;30.60;41.75;99204.53;6063717;28;97659;-59
2021/08/14 07:19:37;;;;;;;;;13.50;10.50;;;;;30.62;41.66;99207.78;6064797;28;99169;-59
2021/08/14 07:22:43;;;;;;;;;12.20;11.80;;;;;30.80;41.26;99206.41;6067110;28;97184;-58
2021/08/14 07:25:46;;;;;;;;;11.00;11.00;;;;;30.93;41.26;99210.81;6067787;28;97106;-58
2021/08/14 07:28:50;;;;;;;;;13.00;11.50;;;;;31.07;41.35;99216.06;6074386;28;97213;-58
2021/08/14 07:31:53;;;;;;;;;10.20;10.00;;;;;31.18;40.85;99212.44;6075134;28;96632;-57
2021/08/14 07:34:58;;;;;;;;;11.00;10.50;;;;;31.39;40.48;99213.09;6050533;28;97851;-60
2021/08/14 07:38:01;;;;;;;;;13.80;12.80;;;;;31.53;40.37;99218.28;6068931;28;97625;-60
2021/08/14 07:41:05;;;;;;;;;12.00;12.00;;;;;31.71;39.90;99216.91;6082545;28;97858;-60
2021/08/14 07:44:08;;;;;;;;;11.00;10.00;;;;;31.96;40.12;99214.00;6083901;28;97357;-60
2021/08/14 07:47:23;;;;;;;;;11.40;11.40;;;;;32.12;38.87;99215.69;6069612;28;97495;-60
2021/08/14 07:50:29;;;;;;;;;11.00;10.00;;;;;32.22;39.02;99214.34;6047593;28;97830;-59
2021/08/14 07:53:33;;;;;;;;;12.00;11.00;;;;;32.30;38.54;99215.38;6066194;28;96677;-58
2021/08/14 07:56:36;;;;;;;;;12.00;11.00;;;;;32.39;38.94;99205.66;6069624;28;98609;-58
2021/08/14 07:59:39;;;;;;;;;12.00;11.00;;;;;32.54;38.70;99199.28;6064392;28;97537;-61
2021/08/14 08:02:44;;;;;;;;;12.00;11.00;;;;;32.85;38.30;99203.25;6082791;28;97452;-60
2021/08/14 08:25:11;;;;;;;;;12.80;11.80;;;;;34.00;36.62;99197.06;6330671;23;96862;-60
2021/08/14 08:28:20;;;;;;;;;13.00;13.00;;;;;34.01;36.66;99193.91;6086498;28;96699;-60
2021/08/14 08:31:25;;;;;;;;;12.00;12.00;;;;;34.09;36.02;99192.06;6088477;28;97406;-59
2021/08/14 08:34:28;;;;;;;;;12.40;12.00;;;;;34.29;35.14;99197.28;6086120;28;96838;-61
2021/08/14 08:37:31;;;;;;;;;12.00;12.00;;;;;34.54;35.97;99197.72;6090081;28;97217;-61
2021/08/14 08:40:38;;;;;;;;;12.20;11.20;;;;;34.72;35.08;99195.25;6089779;28;97408;-61
2021/08/14 08:43:42;;;;;;;;;14.00;13.00;;;;;34.74;35.03;99190.09;6087330;28;98566;-60
2021/08/14 08:46:46;;;;;;;;;13.00;13.00;;;;;34.84;35.45;99192.25;6078501;28;97564;-61
2021/08/14 08:49:54;;;;;;;;;13.00;12.60;;;;;35.12;33.09;99187.09;6063290;28;98706;-59
2021/08/14 08:52:58;;;;;;;;;12.00;12.00;;;;;35.21;33.31;99181.22;6056183;28;96516;-61
2021/08/14 08:56:03;;;;;;;;;15.60;14.40;;;;;35.43;32.42;99188.72;6066013;28;97879;-60
2021/08/14 08:59:09;;;;;;;;;13.00;12.20;;;;;35.64;32.84;99179.81;6062493;28;98066;-61
2021/08/14 09:02:23;;;;;;;;;14.00;13.00;;;;;35.80;31.71;99177.63;6068886;28;96661;-61
2021/08/14 09:05:27;;;;;;;;;14.40;12.00;;;;;35.94;31.51;99186.22;6072250;28;96857;-60
2021/08/14 09:08:30;;;;;;;;;13.00;12.20;;;;;35.86;31.08;99178.09;6071013;28;97174;-60
2021/08/14 09:11:35;;;;;;;;;14.00;13.00;;;;;35.91;32.23;99187.00;6063360;28;97441;-60
2021/08/14 09:14:47;;;;;;;;;12.80;12.00;;;;;36.15;32.03;99180.06;6068215;28;97538;-60
2021/08/14 09:18:00;;;;;;;;;14.00;14.00;;;;;36.31;32.25;99177.03;6063934;28;97459;-60
2021/08/14 09:21:04;;;;;;;;;14.00;14.00;;;;;36.42;32.26;99178.72;6063964;28;97498;-61
2021/08/14 09:24:09;;;;;;;;;15.00;14.00;;;;;36.60;32.70;99169.66;6075642;28;98122;-60
2021/08/14 09:27:16;;;;;;;;;14.40;13.00;;;;;36.67;32.77;99167.72;6091068;28;96673;-61
2021/08/14 09:30:19;;;;;;;;;16.25;15.00;;;;;36.82;32.27;99175.06;6088124;28;96781;-60
2021/08/14 09:33:25;;;;;;;;;14.00;13.00;;;;;36.94;32.14;99162.72;6083027;28;97542;-61
2021/08/14 09:36:29;;;;;;;;;14.40;14.00;;;;;37.03;31.68;99157.56;6079758;28;98115;-59
2021/08/14 09:39:49;;;;;;;;;17.00;14.00;;;;;37.07;32.20;99160.38;6074261;28;97943;-59
2021/08/14 09:42:53;;;;;;;;;14.00;13.40;;;;;37.07;31.55;99158.41;6073389;28;97083;-62
2021/08/14 09:45:58;;;;;;;;;15.50;14.50;;;;;37.13;31.35;99154.06;6089846;28;97046;-59
2021/08/14 09:49:01;;;;;;;;;16.00;16.00;;;;;37.22;31.06;99157.31;6090125;28;97012;-61
2021/08/14 09:52:19;;;;;;;;;16.20;16.00;;;;;37.10;31.53;99159.63;6075355;28;96527;-59
2021/08/14 09:55:26;;;;;;;;;14.60;14.00;;;;;37.18;30.88;99153.69;6090972;28;97440;-61
2021/08/14 09:58:32;;;;;;;;;16.60;15.00;;;;;36.91;31.03;99149.44;6089807;28;97172;-60
2021/08/14 10:01:39;;;;;;;;;14.80;14.00;;;;;36.99;31.29;99144.69;6073819;28;96720;-60
2021/08/14 10:04:45;;;;;;;;;16.00;14.75;;;;;37.09;31.52;99146.78;6073576;28;96670;-60
2021/08/14 10:07:48;;;;;;;;;15.00;14.00;;;;;37.21;31.64;99146.44;6087348;28;97494;-60
2021/08/14 10:10:52;;;;;;;;;17.00;15.40;;;;;37.25;31.32;99147.28;6089305;28;96691;-60
2021/08/14 10:13:58;;;;;;;;;15.60;14.60;;;;;37.38;31.16;99140.13;6088803;28;97083;-62
2021/08/14 10:17:02;;;;;;;;;15.00;15.00;;;;;37.39;31.12;99138.91;6089016;28;97477;-59
2021/08/14 10:20:06;;;;;;;;;14.00;13.00;;;;;37.65;30.49;99141.47;6088967;28;97567;-61
2021/08/14 10:23:12;;;;;;;;;17.80;15.00;;;;;37.71;30.89;99137.06;6088809;28;96639;-60
2021/08/14 10:26:18;;;;;;;;;15.20;14.20;;;;;37.65;30.60;99137.84;6090366;28;97927;-59
2021/08/14 10:29:45;;;;;;;;;17.00;16.00;;;;;37.72;30.74;99138.69;6073648;28;96703;-61
2021/08/14 10:32:48;;;;;;;;;15.00;15.00;;;;;37.72;30.36;99138.69;6089068;28;96495;-60
2021/08/14 10:35:52;;;;;;;;;15.67;15.00;;;;;37.71;30.31;99137.06;6089543;28;97469;-61
2021/08/14 10:38:57;;;;;;;;;14.00;14.00;;;;;37.71;30.81;99131.44;6090237;28;97708;-59
2021/08/14 10:42:03;;;;;;;;;17.00;16.00;;;;;37.57;30.84;99133.41;6090249;28;96702;-61
2021/08/14 10:45:19;;;;;;;;;17.60;15.00;;;;;37.65;31.45;99130.22;6091472;28;96489;-62
2021/08/14 10:48:53;;;;;;;;;15.80;14.80;;;;;37.56;31.12;99124.16;6089459;28;97705;-61
2021/08/14 10:52:13;;;;;;;;;17.00;15.00;;;;;37.50;30.23;99116.44;6092517;28;96487;-61
2021/08/14 10:55:18;;;;;;;;;14.40;14.40;;;;;37.64;30.80;99116.53;6093951;28;97485;-61
2021/08/14 10:58:28;;;;;;;;;15.20;13.40;;;;;37.84;29.83;99111.34;6093820;28;96753;-60
2021/08/14 11:01:35;;;;;;;;;18.00;16.60;;;;;38.00;30.39;99111.84;6093720;28;97425;-60
2021/08/14 11:04:41;;;;;;;;;16.00;14.80;;;;;38.17;29.38;99103.41;6076953;28;96890;-60
2021/08/14 11:07:44;;;;;;;;;15.00;14.40;;;;;38.24;29.67;99101.81;6093134;28;96744;-61
2021/08/14 11:10:48;;;;;;;;;18.20;16.00;;;;;38.25;29.98;99092.16;6094407;28;97408;-62
2021/08/14 11:14:13;;;;;;;;;14.60;14.00;;;;;38.34;29.08;99096.19;6093288;28;96624;-61
2021/08/14 11:17:36;;;;;;;;;16.50;15.50;;;;;38.35;28.68;99103.44;6092727;28;97364;-63
2021/08/14 11:20:40;;;;;;;;;15.40;15.00;;;;;38.25;29.24;99098.59;6093472;28;96576;-62
2021/08/14 11:23:57;;;;;;;;;16.50;16.00;;;;;37.92;29.31;99096.94;6093560;28;98649;-61
2021/08/14 11:27:01;;;;;;;;;16.00;16.00;;;;;38.13;29.83;99091.34;6092755;28;97281;-60
2021/08/14 11:30:07;;;;;;;;;15.80;14.80;;;;;38.29;29.40;99090.94;6077515;28;97494;-58
2021/08/14 11:33:15;;;;;;;;;14.00;13.00;;;;;38.53;29.40;99087.34;6093678;28;97558;-59
2021/08/14 11:36:18;;;;;;;;;17.00;16.00;;;;;38.71;28.57;99084.50;6093310;28;96445;-59
2021/08/14 11:39:30;;;;;;;;;14.40;14.00;;;;;38.83;28.30;99084.09;6092330;28;97452;-60
2021/08/14 11:42:33;;;;;;;;;15.00;14.00;;;;;38.95;28.16;99083.66;6092480;28;97530;-60
2021/08/14 11:45:39;;;;;;;;;17.00;16.00;;;;;38.96;27.80;99076.81;6092560;28;97011;-61
2021/08/14 11:48:45;;;;;;;;;13.50;13.00;;;;;38.92;28.18;99083.69;6092677;28;97549;-60
2021/08/14 11:52:01;;;;;;;;;15.00;13.67;;;;;38.84;28.60;99054.69;6093137;28;97504;-60
2021/08/14 11:55:07;;;;;;;;;16.00;14.80;;;;;39.07;27.82;99073.16;6094230;28;97187;-61
2021/08/14 11:58:10;;;;;;;;;13.60;13.00;;;;;39.09;27.22;99070.75;6091871;28;96439;-59
2021/08/14 12:01:14;;;;;;;;;14.00;14.00;;;;;38.96;26.05;99065.53;6076253;28;96640;-61
2021/08/14 12:04:20;;;;;;;;;16.00;13.60;;;;;38.75;27.06;99056.31;6088676;28;97156;-62
2021/08/14 12:07:27;;;;;;;;;16.00;15.00;;;;;38.84;28.03;99051.88;6093262;28;97552;-61
2021/08/14 12:10:31;;;;;;;;;14.75;14.00;;;;;38.99;27.35;99058.31;6092892;28;96504;-60
2021/08/14 12:13:35;;;;;;;;;13.25;13.00;;;;;38.93;26.90;99057.09;6092646;28;98050;-63
2021/08/14 12:16:41;;;;;;;;;16.20;14.60;;;;;38.80;26.71;99044.63;6091357;28;97397;-62
2021/08/14 12:19:51;;;;;;;;;15.75;13.50;;;;;38.66;27.44;99041.88;6092582;28;96702;-60
2021/08/14 12:22:54;;;;;;;;;13.40;13.40;;;;;38.66;27.19;99056.72;6092369;28;97073;-62
2021/08/14 12:25:59;;;;;;;;;14.80;13.00;;;;;38.81;27.04;99049.84;6092102;28;97168;-63
2021/08/14 12:29:05;;;;;;;;;16.80;16.00;;;;;38.84;27.33;99053.88;6091662;28;96814;-62
2021/08/14 12:32:11;;;;;;;;;14.00;13.00;;;;;38.86;26.94;99051.44;6092267;28;97436;-63
2021/08/14 12:35:20;;;;;;;;;16.00;14.00;;;;;38.81;26.38;99046.22;6074538;28;97936;-60
2021/08/14 12:38:25;;;;;;;;;13.00;13.00;;;;;38.85;26.98;99056.31;6073727;28;99164;-62
2021/08/14 12:41:35;;;;;;;;;14.40;14.00;;;;;38.90;26.57;99049.47;6091514;28;96474;-63
2021/08/14 12:44:41;;;;;;;;;17.00;15.00;;;;;38.81;26.83;99047.03;6090875;28;97581;-62
2021/08/14 12:47:47;;;;;;;;;12.80;12.80;;;;;38.80;26.63;99042.63;6091530;28;97402;-62
2021/08/14 12:50:52;;;;;;;;;16.00;14.00;;;;;38.91;26.72;99034.16;6091757;28;97546;-60
2021/08/14 12:53:55;;;;;;;;;16.00;14.75;;;;;38.94;26.37;99031.34;6091123;28;97206;-61
2021/08/14 12:57:02;;;;;;;;;14.00;13.50;;;;;38.88;26.91;99038.59;6090684;28;97424;-63
2021/08/14 13:00:07;;;;;;;;;14.80;13.80;;;;;38.63;26.24;99037.00;6075694;28;97236;-62
2021/08/14 13:03:15;;;;;;;;;15.00;14.00;;;;;38.63;26.61;99034.19;6073619;28;98509;-63
2021/08/14 13:06:20;;;;;;;;;16.00;14.00;;;;;38.68;26.97;99039.41;6091029;28;97063;-63
2021/08/14 13:09:23;;;;;;;;;17.00;15.50;;;;;38.77;27.46;99034.97;6074655;28;97929;-62
2021/08/14 13:12:26;;;;;;;;;15.00;15.00;;;;;38.71;26.49;99027.34;6090855;28;97308;-60
2021/08/14 13:15:30;;;;;;;;;12.75;12.75;;;;;38.47;26.28;99024.16;6090204;28;96584;-62
2021/08/14 13:18:33;;;;;;;;;14.00;13.00;;;;;38.57;26.74;99023.34;6091139;28;96747;-63
2021/08/14 13:21:39;;;;;;;;;16.00;14.60;;;;;38.61;26.41;99016.91;6091665;28;97376;-62
2021/08/14 13:24:42;;;;;;;;;12.00;12.00;;;;;38.38;26.67;99023.75;6073093;28;97031;-62
2021/08/14 13:27:46;;;;;;;;;14.00;13.00;;;;;38.31;26.98;99008.88;6091569;28;97510;-62
2021/08/14 13:30:50;;;;;;;;;13.00;13.00;;;;;38.33;27.38;99014.91;6091155;28;96541;-63
2021/08/14 13:33:55;;;;;;;;;15.50;14.00;;;;;38.48;27.11;99014.50;6090811;28;96836;-60
2021/08/14 13:37:00;;;;;;;;;16.00;15.00;;;;;38.45;27.48;99017.34;6091078;28;97105;-60
2021/08/14 13:40:05;;;;;;;;;15.00;15.00;;;;;38.47;27.82;99009.28;6075847;28;96774;-62
2021/08/14 13:43:10;;;;;;;;;13.67;13.67;;;;;38.40;26.67;99003.63;6090136;28;97388;-62
2021/08/14 13:46:13;;;;;;;;;16.80;14.80;;;;;38.19;27.08;99003.66;6090969;28;96888;-62
2021/08/14 13:49:16;;;;;;;;;15.00;14.00;;;;;37.97;27.72;99003.66;6090361;28;96730;-60
2021/08/14 13:52:21;;;;;;;;;18.00;16.00;;;;;37.96;28.26;99004.03;6090936;28;97845;-62
2021/08/14 13:55:26;;;;;;;;;17.00;15.00;;;;;38.07;27.68;98994.41;6090272;28;97502;-62
2021/08/14 13:58:29;;;;;;;;;15.20;14.20;;;;;38.23;27.94;99005.25;6090043;28;97480;-63
2021/08/14 14:01:33;;;;;;;;;15.00;14.20;;;;;38.26;27.10;98992.38;6090662;28;96820;-60
2021/08/14 14:04:37;;;;;;;;;15.00;14.40;;;;;38.24;27.32;98995.59;6057152;28;98750;-63
2021/08/14 14:07:42;;;;;;;;;14.80;13.80;;;;;38.20;27.23;98992.00;6089432;28;97655;-62
2021/08/14 14:10:46;;;;;;;;;14.75;13.75;;;;;38.11;28.03;98967.06;6090682;28;97300;-61
2021/08/14 14:13:51;;;;;;;;;16.25;15.00;;;;;38.31;27.35;98984.34;6090337;28;96461;-60
2021/08/14 14:16:55;;;;;;;;;15.33;15.33;;;;;38.37;27.32;98993.16;6090623;28;97271;-62
2021/08/14 14:19:58;;;;;;;;;17.00;16.00;;;;;38.49;27.58;98998.41;6089939;28;96852;-62
2021/08/14 14:23:03;;;;;;;;;17.00;15.80;;;;;38.57;28.09;98995.16;6089708;28;96696;-62
2021/08/14 14:26:07;;;;;;;;;18.80;16.80;;;;;38.58;27.88;98987.53;6075645;28;96641;-63
2021/08/14 14:29:10;;;;;;;;;15.60;14.00;;;;;38.54;26.42;98993.19;6093798;28;96474;-62
2021/08/14 14:32:14;;;;;;;;;15.00;14.00;;;;;38.52;26.35;98991.97;6094550;28;97474;-62
2021/08/14 14:35:17;;;;;;;;;16.00;15.00;;;;;38.55;26.75;98994.78;6093809;28;97582;-60
2021/08/14 14:38:22;;;;;;;;;16.00;15.00;;;;;38.35;26.71;98989.97;6093737;28;97439;-62
2021/08/14 14:41:25;;;;;;;;;15.60;15.20;;;;;38.11;27.35;98992.41;6093183;28;96688;-62
2021/08/14 14:44:28;;;;;;;;;16.75;15.50;;;;;38.01;27.99;98993.22;6094309;28;97426;-63
2021/08/14 14:47:32;;;;;;;;;14.60;14.00;;;;;38.01;27.99;98989.59;6072902;28;96732;-60
2021/08/14 14:50:36;;;;;;;;;16.00;15.00;;;;;38.07;27.24;98985.94;6076154;28;97774;-62
2021/08/14 14:53:41;;;;;;;;;16.20;15.00;;;;;37.94;26.98;98986.72;6094078;28;97385;-62
2021/08/14 14:56:44;;;;;;;;;14.00;13.00;;;;;37.69;27.24;98978.28;6093716;28;97634;-62
2021/08/14 14:59:48;;;;;;;;;14.80;14.00;;;;;37.55;27.84;98981.06;6092787;28;97497;-63
2021/08/14 15:02:51;;;;;;;;;16.20;16.20;;;;;37.55;28.18;98981.88;6093242;28;97146;-63
2021/08/14 15:05:56;;;;;;;;;15.60;15.60;;;;;37.48;28.08;98978.25;6076460;28;97637;-62
2021/08/14 15:09:01;;;;;;;;;17.00;16.00;;;;;37.52;29.24;98973.41;6092604;28;96606;-62
2021/08/14 15:12:06;;;;;;;;;17.00;16.00;;;;;37.54;29.25;98977.47;6078560;28;97741;-62
2021/08/14 15:15:10;;;;;;;;;16.20;15.80;;;;;37.50;28.59;98975.81;6093608;28;96874;-63
2021/08/14 15:18:14;;;;;;;;;17.00;16.00;;;;;37.54;28.32;98966.19;6092522;28;96830;-61
2021/08/14 15:21:17;;;;;;;;;16.00;15.00;;;;;37.37;28.48;98966.97;6093629;28;97410;-63
2021/08/14 15:24:22;;;;;;;;;16.25;15.25;;;;;37.33;28.73;98968.97;6092135;28;97484;-62
2021/08/14 15:27:25;;;;;;;;;15.00;13.00;;;;;37.20;27.98;98954.47;6092816;28;96843;-62
2021/08/14 15:30:28;;;;;;;;;14.00;13.40;;;;;37.10;28.42;98941.16;6093255;28;97427;-61
2021/08/14 15:33:32;;;;;;;;;16.00;15.60;;;;;37.08;28.83;98945.59;6093357;28;97424;-62
2021/08/14 15:36:39;;;;;;;;;14.50;14.50;;;;;37.01;29.20;98932.28;6092626;28;97599;-60
2021/08/14 15:39:44;;;;;;;;;14.40;14.00;;;;;36.92;28.58;98939.47;6091451;28;97499;-62
2021/08/14 15:42:47;;;;;;;;;19.00;17.00;;;;;36.82;29.14;98929.81;6093009;28;97567;-62
2021/08/14 15:45:51;;;;;;;;;16.50;14.75;;;;;36.69;29.88;98934.19;6073940;28;97658;-63
2021/08/14 15:48:54;;;;;;;;;17.40;17.40;;;;;36.66;30.36;98932.16;6093888;28;97509;-60
2021/08/14 15:51:57;;;;;;;;;19.00;16.60;;;;;36.56;30.48;98932.88;6094168;28;96600;-60
2021/08/14 15:55:02;;;;;;;;;17.00;17.00;;;;;36.44;30.85;98928.41;6091368;28;97463;-63
2021/08/14 15:58:05;;;;;;;;;18.00;18.00;;;;;36.39;30.95;98932.41;6087766;28;97160;-60
2021/08/14 16:01:09;;;;;;;;;18.00;17.00;;;;;36.27;31.20;98932.72;6071808;28;97684;-62
2021/08/14 16:04:13;;;;;;;;;17.20;17.00;;;;;36.24;31.78;98927.91;6073821;28;100060;-61
2021/08/14 16:07:22;;;;;;;;;19.60;18.00;;;;;36.16;31.55;98920.63;6085853;28;97504;-63
2021/08/14 16:10:26;;;;;;;;;19.40;17.40;;;;;36.13;31.72;98932.63;6072547;28;97060;-61
2021/08/14 16:13:30;;;;;;;;;18.75;17.00;;;;;36.10;31.92;98932.59;6091292;28;97480;-63
2021/08/14 16:16:33;;;;;;;;;20.00;18.00;;;;;36.06;32.19;98929.75;6091603;28;96850;-61
2021/08/14 16:19:37;;;;;;;;;19.75;19.00;;;;;35.96;32.01;98927.69;6092039;28;97416;-61
2021/08/14 16:22:41;;;;;;;;;19.50;19.50;;;;;35.89;32.07;98930.41;6091499;28;96556;-60
2021/08/14 16:25:45;;;;;;;;;16.00;16.00;;;;;35.81;32.08;98928.75;6091931;28;98188;-61
2021/08/14 16:28:49;;;;;;;;;17.40;16.00;;;;;35.79;31.48;98922.72;6090266;28;97159;-62
2021/08/14 16:31:52;;;;;;;;;18.40;17.40;;;;;35.74;32.27;98925.88;6088971;28;97447;-60
2021/08/14 16:34:55;;;;;;;;;19.20;18.80;;;;;35.45;31.76;98908.78;6090893;28;97515;-62
2021/08/14 16:37:59;;;;;;;;;17.60;16.60;;;;;35.52;31.96;98927.69;6091291;28;96939;-61
2021/08/14 16:41:03;;;;;;;;;18.25;17.25;;;;;35.46;32.22;98937.63;6091799;28;97463;-62
2021/08/14 16:44:07;;;;;;;;;18.25;17.75;;;;;35.35;32.08;98936.72;6090813;28;96664;-63
2021/08/14 16:47:10;;;;;;;;;16.25;15.00;;;;;35.27;32.10;98935.03;6090443;28;97458;-61
2021/08/14 16:50:13;;;;;;;;;18.40;17.00;;;;;35.19;32.18;98937.75;6092604;28;97413;-62
2021/08/14 16:53:17;;;;;;;;;18.40;17.40;;;;;35.10;32.57;98933.63;6091511;28;97518;-60
2021/08/14 16:56:22;;;;;;;;;18.00;17.60;;;;;35.10;32.67;98930.81;6091348;28;97005;-62
2021/08/14 16:59:26;;;;;;;;;17.80;16.80;;;;;35.07;32.89;98937.19;6092136;28;98147;-62
2021/08/14 17:02:30;;;;;;;;;18.00;17.00;;;;;35.03;33.57;98927.94;6091108;28;96628;-60
2021/08/14 17:05:33;;;;;;;;;19.00;18.00;;;;;34.94;34.19;98931.06;6073211;28;97157;-62
2021/08/14 17:08:37;;;;;;;;;19.60;18.60;;;;;34.84;35.31;98928.13;6090552;28;98169;-62
2021/08/14 17:11:41;;;;;;;;;20.80;19.20;;;;;34.67;35.93;98929.47;6091316;28;97450;-59
2021/08/14 17:14:45;;;;;;;;;19.00;18.00;;;;;34.51;36.57;98928.84;6089660;28;97473;-61
2021/08/14 17:17:48;;;;;;;;;18.50;17.75;;;;;34.27;36.58;98902.97;6074225;28;96771;-61
2021/08/14 17:20:53;;;;;;;;;19.50;19.50;;;;;34.34;37.19;98938.66;6089546;28;97673;-59
2021/08/14 17:23:57;;;;;;;;;21.60;19.60;;;;;34.12;37.65;98911.50;6090646;28;97490;-60
2021/08/14 17:27:02;;;;;;;;;23.50;22.00;;;;;34.00;38.47;98936.91;6090527;28;97433;-60
2021/08/14 17:30:06;;;;;;;;;19.20;18.20;;;;;33.79;38.67;98924.19;6082819;28;97980;-60
2021/08/14 17:33:10;;;;;;;;;23.00;21.00;;;;;33.63;38.94;98926.28;6089965;28;97547;-61
2021/08/14 17:36:13;;;;;;;;;22.00;20.00;;;;;33.49;39.09;98921.25;6090057;28;96511;-61
2021/08/14 17:39:16;;;;;;;;;22.00;20.25;;;;;33.39;39.67;98923.84;6089201;28;97437;-61
2021/08/14 17:42:22;;;;;;;;;24.00;23.00;;;;;33.30;39.53;98924.09;6089973;28;97012;-60
2021/08/14 17:45:25;;;;;;;;;23.00;21.00;;;;;33.18;40.74;98913.13;6090356;28;97722;-61
2021/08/14 17:48:28;;;;;;;;;21.00;20.40;;;;;33.04;40.29;98913.59;6090387;28;97661;-62
2021/08/14 17:51:32;;;;;;;;;21.00;19.60;;;;;32.90;40.43;98912.53;6089894;28;96512;-62
2021/08/14 17:54:37;;;;;;;;;20.00;19.00;;;;;32.65;41.37;98893.28;6073044;28;97304;-61
2021/08/14 17:57:42;;;;;;;;;22.00;20.00;;;;;32.76;41.77;98912.25;6090503;28;97300;-60
2021/08/14 18:00:45;;;;;;;;;20.00;19.00;;;;;32.63;42.06;98914.34;6089002;28;97099;-61
2021/08/14 18:03:49;;;;;;;;;23.20;21.20;;;;;32.56;42.13;98914.19;6089902;28;96901;-61
2021/08/14 18:06:52;;;;;;;;;21.00;19.00;;;;;32.36;41.92;98885.47;6089791;28;97074;-61
2021/08/14 18:09:55;;;;;;;;;23.00;22.00;;;;;32.35;42.05;98911.78;6072990;28;98086;-61
2021/08/14 18:13:00;;;;;;;;;23.50;21.00;;;;;32.26;42.34;98908.34;6089643;28;98186;-61
2021/08/14 18:16:04;;;;;;;;;22.50;21.50;;;;;32.16;42.66;98903.34;6074019;28;98098;-60
2021/08/14 18:19:08;;;;;;;;;23.50;21.25;;;;;32.04;42.52;98909.03;6071765;28;96797;-61
2021/08/14 18:22:11;;;;;;;;;20.60;20.60;;;;;31.94;42.05;98907.63;6088896;28;99245;-62
2021/08/14 18:25:15;;;;;;;;;22.40;19.40;;;;;31.92;41.79;98907.16;6088803;28;97445;-60
2021/08/14 18:28:21;;;;;;;;;31.00;28.00;;;;;31.72;42.00;98889.56;6089626;28;97499;-61
2021/08/14 18:31:25;;;;;;;;;29.60;28.60;;;;;31.86;41.36;98910.59;6089456;28;97379;-61
2021/08/14 18:34:28;;;;;;;;;38.00;32.00;;;;;31.79;41.71;98911.22;6089336;28;97788;-61
2021/08/14 18:37:32;;;;;;;;;33.00;30.00;;;;;31.71;42.16;98904.69;6089211;28;97474;-61
2021/08/14 18:40:36;;;;;;;;;29.00;28.00;;;;;31.61;41.89;98910.00;6089809;28;97120;-59
2021/08/14 18:43:41;;;;;;;;;28.60;27.00;;;;;31.54;43.49;98918.13;6090059;28;97605;-61
2021/08/14 18:46:44;;;;;;;;;30.20;29.00;;;;;31.48;44.22;98914.78;6088405;28;97463;-59
2021/08/14 18:49:47;;;;;;;;;32.25;29.25;;;;;31.40;44.29;98911.03;6089241;28;96858;-59
2021/08/14 18:52:51;;;;;;;;;30.00;28.00;;;;;31.32;44.29;98906.47;6088644;28;96714;-61
2021/08/14 18:55:55;;;;;;;;;30.00;29.00;;;;;31.25;44.42;98911.81;6088710;28;97130;-62
2021/08/14 18:59:00;;;;;;;;;31.25;29.75;;;;;31.18;44.15;98908.84;6071884;28;97064;-62
2021/08/14 19:02:04;;;;;;;;;30.00;28.40;;;;;31.14;44.08;98910.72;6074419;28;97116;-61
2021/08/14 19:05:10;;;;;;;;;32.00;30.00;;;;;31.11;43.92;98911.44;6089255;28;96557;-61
2021/08/14 19:08:13;;;;;;;;;29.00;28.00;;;;;31.10;42.73;98907.03;6089351;28;97026;-61
2021/08/14 19:11:17;;;;;;;;;30.60;29.60;;;;;31.11;42.08;98905.88;6089094;28;97414;-60
2021/08/14 19:14:21;;;;;;;;;29.20;27.40;;;;;31.12;41.50;98904.72;6091366;28;97391;-61
2021/08/14 19:17:25;;;;;;;;;28.00;27.00;;;;;31.10;41.52;98901.47;6092266;28;97014;-60
2021/08/14 19:20:28;;;;;;;;;30.40;27.40;;;;;31.09;42.30;98905.41;6093265;28;97503;-60
2021/08/14 19:23:32;;;;;;;;;29.20;27.20;;;;;31.04;43.05;98904.88;6092031;28;97586;-61
2021/08/14 19:26:35;;;;;;;;;34.00;31.00;;;;;30.92;42.90;98908.50;6092458;28;96952;-59
2021/08/14 19:29:40;;;;;;;;;26.00;24.00;;;;;30.88;42.59;98905.63;6093228;28;98187;-59
2021/08/14 19:32:44;;;;;;;;;25.50;25.00;;;;;30.87;42.35;98911.53;6093495;28;97429;-61
2021/08/14 19:36:07;;;;;;;;;28.00;25.00;;;;;30.83;42.53;98908.69;6089120;28;96659;-59
2021/08/14 19:39:10;;;;;;;;;27.00;25.00;;;;;30.83;42.24;98903.09;6076122;28;97159;-61
2021/08/14 19:42:14;;;;;;;;;29.00;26.00;;;;;30.72;42.60;98887.25;6092582;28;97371;-59
2021/08/14 19:45:19;;;;;;;;;28.00;26.00;;;;;30.82;42.78;98895.91;6093951;28;97195;-61
2021/08/14 19:48:22;;;;;;;;;26.00;25.00;;;;;30.74;43.57;98896.84;6091660;28;96582;-61
2021/08/14 19:51:26;;;;;;;;;28.40;27.00;;;;;30.66;43.37;98889.47;6091830;28;96646;-61
2021/08/14 19:54:34;;;;;;;;;27.00;26.00;;;;;30.57;44.01;98891.63;6075131;28;97401;-61
2021/08/14 19:57:41;;;;;;;;;32.00;30.00;;;;;30.49;44.36;98890.59;6092289;28;96856;-61
2021/08/14 20:00:46;;;;;;;;;32.00;30.00;;;;;30.44;43.83;98898.34;6091788;28;97453;-61
2021/08/14 20:03:49;;;;;;;;;26.80;25.00;;;;;30.43;43.83;98893.94;6093012;28;97276;-61
2021/08/14 20:06:53;;;;;;;;;29.00;26.00;;;;;30.42;44.39;98886.75;6091429;28;97475;-59
2021/08/14 20:09:56;;;;;;;;;32.00;28.00;;;;;30.39;44.65;98884.69;6075728;28;97094;-58
2021/08/14 20:13:00;;;;;;;;;29.60;29.00;;;;;30.37;44.77;98892.56;6091595;28;97603;-61
2021/08/14 20:16:05;;;;;;;;;28.20;27.00;;;;;30.29;44.64;98886.00;6075125;28;97808;-62
2021/08/14 20:19:08;;;;;;;;;28.00;26.33;;;;;30.25;45.22;98887.84;6092017;28;97118;-60
2021/08/14 20:22:12;;;;;;;;;25.20;23.80;;;;;30.25;44.96;98887.06;6091384;28;97501;-61
2021/08/14 20:25:16;;;;;;;;;24.00;23.00;;;;;30.23;45.47;98889.38;6073576;28;97341;-61
2021/08/14 20:28:20;;;;;;;;;24.80;21.80;;;;;30.23;45.52;98875.47;6090673;28;98269;-61
2021/08/14 20:31:25;;;;;;;;;27.40;24.60;;;;;30.13;45.19;98869.22;6091044;28;96633;-60
2021/08/14 20:34:28;;;;;;;;;25.40;22.80;;;;;30.23;45.48;98881.03;6091283;28;97677;-61
2021/08/14 20:37:31;;;;;;;;;22.00;22.00;;;;;30.19;45.91;98874.56;6092629;28;97478;-58
2021/08/14 20:40:35;;;;;;;;;22.60;22.00;;;;;30.22;45.69;98871.06;6091559;28;97652;-60
2021/08/14 20:43:39;;;;;;;;;26.25;24.75;;;;;30.21;45.92;98866.66;6090827;28;96963;-60
2021/08/14 20:46:43;;;;;;;;;22.75;21.50;;;;;30.23;45.96;98875.47;6090619;28;98598;-61
2021/08/14 20:49:47;;;;;;;;;24.50;22.25;;;;;30.21;45.87;98875.81;6090376;28;97491;-61
2021/08/14 20:52:50;;;;;;;;;23.00;19.40;;;;;30.21;46.38;98872.22;6091641;28;97232;-59
2021/08/14 20:55:54;;;;;;;;;23.00;20.20;;;;;30.23;46.26;98872.69;6074052;28;96818;-58
2021/08/14 20:58:57;;;;;;;;;22.00;21.00;;;;;30.23;46.32;98876.28;6074240;28;96523;-60
2021/08/14 21:02:03;;;;;;;;;22.00;20.40;;;;;30.22;46.00;98879.41;6090328;28;97357;-60
2021/08/14 21:05:07;;;;;;;;;23.40;20.40;;;;;30.20;46.01;98876.19;6090205;28;97491;-61
2021/08/14 21:08:11;;;;;;;;;23.00;21.00;;;;;30.17;46.21;98879.63;6091045;28;97585;-59
2021/08/14 21:11:14;;;;;;;;;27.00;24.00;;;;;30.13;46.19;98877.56;6090547;28;97534;-60
2021/08/14 21:14:33;;;;;;;;;21.50;19.00;;;;;30.08;46.54;98872.25;6091234;28;97455;-60
2021/08/14 21:17:38;;;;;;;;;23.00;22.00;;;;;30.01;46.67;98866.47;6090133;28;96825;-60
2021/08/14 21:20:41;;;;;;;;;25.00;23.00;;;;;29.99;46.86;98868.81;6082119;28;97427;-60
2021/08/14 21:23:45;;;;;;;;;23.00;22.00;;;;;29.97;47.19;98867.50;6090081;28;98074;-60
2021/08/14 21:26:48;;;;;;;;;28.00;26.00;;;;;29.91;48.03;98868.94;6090206;28;97514;-60
2021/08/14 21:29:52;;;;;;;;;27.00;26.00;;;;;29.85;47.80;98868.34;6091006;28;97141;-58
2021/08/14 21:32:57;;;;;;;;;28.00;26.00;;;;;29.79;48.37;98869.72;6057113;28;97643;-60